sensor_id;sensor_type;location;lat;lon;timestamp;P1;durP1;ratioP1;P2;durP2;ratioP2
12912;SDS011;6524;51.368;11.984;2022-08-02T04:05:02;5.60;;;3.42;;
12912;SDS011;6524;51.368;11.984;2022-08-02T04:10:03;5.40;;;3.35;;
12912;SDS011;6524;51.368;11.984;2022-08-02T04:15:04;5.35;;;3.30;;
12912;SDS011;6524;51.368;11.984;2022-08-02T04:20:07;5.38;;;3.40;;
12912;SDS011;6524;51.368;11.984;2022-08-02T04:25:12;6.47;;;3.40;;
12912;SDS011;6524;51.368;11.984;2022-08-02T04:30:14;6.32;;;3.08;;
12912;SDS011;6524;51.368;11.984;2022-08-02T04:35:16;6.72;;;3.20;;
12912;SDS011;6524;51.368;11.984;2022-08-02T04:40:16;6.20;;;3.22;;
12912;SDS011;6524;51.368;11.984;2022-08-02T04:45:16;5.20;;;3.05;;
12912;SDS011;6524;51.368;11.984;2022-08-02T04:50:18;5.18;;;2.90;;
12912;SDS011;6524;51.368;11.984;2022-08-02T04:55:19;6.18;;;3.03;;
12912;SDS011;6524;51.368;11.984;2022-08-02T05:00:20;4.97;;;3.13;;
12912;SDS011;6524;51.368;11.984;2022-08-02T05:05:21;4.05;;;2.90;;
12912;SDS011;6524;51.368;11.984;2022-08-02T05:10:21;5.57;;;3.00;;
12912;SDS011;6524;51.368;11.984;2022-08-02T05:15:22;8.85;;;3.60;;
12912;SDS011;6524;51.368;11.984;2022-08-02T05:20:23;5.53;;;3.20;;
12912;SDS011;6524;51.368;11.984;2022-08-02T05:25:23;4.65;;;3.55;;
12912;SDS011;6524;51.368;11.984;2022-08-02T05:30:23;6.78;;;3.92;;
12912;SDS011;6524;51.368;11.984;2022-08-02T05:35:24;9.20;;;3.85;;
12912;SDS011;6524;51.368;11.984;2022-08-02T05:40:24;4.85;;;3.38;;
12912;SDS011;6524;51.368;11.984;2022-08-02T05:45:24;6.47;;;3.30;;
12912;SDS011;6524;51.368;11.984;2022-08-02T05:50:25;6.40;;;3.20;;
12912;SDS011;6524;51.368;11.984;2022-08-02T05:55:26;5.80;;;3.00;;
12912;SDS011;6524;51.368;11.984;2022-08-02T06:00:31;6.15;;;3.33;;
12912;SDS011;6524;51.368;11.984;2022-08-02T06:05:44;6.07;;;3.28;;
12912;SDS011;6524;51.368;11.984;2022-08-02T06:10:50;6.85;;;3.50;;
12912;SDS011;6524;51.368;11.984;2022-08-02T06:15:54;4.93;;;3.05;;
12912;SDS011;6524;51.368;11.984;2022-08-02T06:20:59;6.80;;;3.20;;
12912;SDS011;6524;51.368;11.984;2022-08-02T06:26:01;4.57;;;2.65;;
12912;SDS011;6524;51.368;11.984;2022-08-02T06:31:02;7.30;;;3.40;;
12912;SDS011;6524;51.368;11.984;2022-08-02T06:41:16;5.00;;;3.10;;
12912;SDS011;6524;51.368;11.984;2022-08-02T06:46:17;4.38;;;2.72;;
12912;SDS011;6524;51.368;11.984;2022-08-02T06:51:18;5.30;;;2.80;;
12912;SDS011;6524;51.368;11.984;2022-08-02T06:56:19;6.82;;;3.30;;
12912;SDS011;6524;51.368;11.984;2022-08-02T07:01:20;5.90;;;2.97;;
12912;SDS011;6524;51.368;11.984;2022-08-02T07:06:21;6.03;;;3.03;;
12912;SDS011;6524;51.368;11.984;2022-08-02T07:11:24;6.18;;;3.10;;
12912;SDS011;6524;51.368;11.984;2022-08-02T07:16:25;7.25;;;3.22;;
12912;SDS011;6524;51.368;11.984;2022-08-02T07:21:25;6.57;;;2.90;;
12912;SDS011;6524;51.368;11.984;2022-08-02T07:26:26;7.03;;;2.83;;
12912;SDS011;6524;51.368;11.984;2022-08-02T07:31:29;5.65;;;2.35;;
12912;SDS011;6524;51.368;11.984;2022-08-02T07:36:30;4.53;;;2.40;;
12912;SDS011;6524;51.368;11.984;2022-08-02T07:41:30;6.05;;;2.70;;
12912;SDS011;6524;51.368;11.984;2022-08-02T07:46:30;4.38;;;3.20;;
12912;SDS011;6524;51.368;11.984;2022-08-02T07:51:32;4.00;;;2.20;;
12912;SDS011;6524;51.368;11.984;2022-08-02T07:56:34;4.68;;;2.20;;
12912;SDS011;6524;51.368;11.984;2022-08-02T08:01:35;4.22;;;2.35;;
12912;SDS011;6524;51.368;11.984;2022-08-02T08:06:36;3.05;;;2.20;;
12912;SDS011;6524;51.368;11.984;2022-08-02T08:11:36;4.68;;;2.38;;
12912;SDS011;6524;51.368;11.984;2022-08-02T08:16:37;3.08;;;2.20;;
12912;SDS011;6524;51.368;11.984;2022-08-02T08:21:37;4.85;;;2.30;;
12912;SDS011;6524;51.368;11.984;2022-08-02T08:26:37;5.68;;;2.40;;
12912;SDS011;6524;51.368;11.984;2022-08-02T08:31:38;4.50;;;2.30;;
12912;SDS011;6524;51.368;11.984;2022-08-02T08:36:39;3.63;;;2.28;;
12912;SDS011;6524;51.368;11.984;2022-08-02T08:41:41;3.42;;;2.20;;
12912;SDS011;6524;51.368;11.984;2022-08-02T08:46:42;3.95;;;2.33;;
12912;SDS011;6524;51.368;11.984;2022-08-02T08:51:47;4.68;;;2.30;;
12912;SDS011;6524;51.368;11.984;2022-08-02T08:56:53;5.00;;;2.42;;
12912;SDS011;6524;51.368;11.984;2022-08-02T09:01:54;3.63;;;2.55;;
12912;SDS011;6524;51.368;11.984;2022-08-02T09:06:55;4.75;;;2.70;;
12912;SDS011;6524;51.368;11.984;2022-08-02T09:12:11;5.80;;;2.50;;
12912;SDS011;6524;51.368;11.984;2022-08-02T09:17:16;4.95;;;2.47;;
12912;SDS011;6524;51.368;11.984;2022-08-02T09:22:16;4.03;;;2.40;;
12912;SDS011;6524;51.368;11.984;2022-08-02T09:27:18;3.92;;;2.75;;
12912;SDS011;6524;51.368;11.984;2022-08-02T09:32:19;5.10;;;3.75;;
12912;SDS011;6524;51.368;11.984;2022-08-02T09:37:21;3.80;;;2.53;;
12912;SDS011;6524;51.368;11.984;2022-08-02T09:42:25;4.57;;;3.28;;
12912;SDS011;6524;51.368;11.984;2022-08-02T09:47:27;5.18;;;2.95;;
12912;SDS011;6524;51.368;11.984;2022-08-02T09:52:28;4.55;;;3.25;;
12912;SDS011;6524;51.368;11.984;2022-08-02T09:57:31;4.82;;;3.30;;
12912;SDS011;6524;51.368;11.984;2022-08-02T10:02:37;4.97;;;3.20;;
12912;SDS011;6524;51.368;11.984;2022-08-02T10:07:37;5.20;;;2.97;;
12912;SDS011;6524;51.368;11.984;2022-08-02T10:12:38;6.10;;;3.63;;
12912;SDS011;6524;51.368;11.984;2022-08-02T10:17:38;4.90;;;3.30;;
12912;SDS011;6524;51.368;11.984;2022-08-02T10:22:39;4.82;;;3.22;;
12912;SDS011;6524;51.368;11.984;2022-08-02T10:27:42;4.55;;;2.75;;
12912;SDS011;6524;51.368;11.984;2022-08-02T10:32:43;5.35;;;3.03;;
12912;SDS011;6524;51.368;11.984;2022-08-02T10:37:48;4.80;;;3.05;;
12912;SDS011;6524;51.368;11.984;2022-08-02T10:42:56;4.22;;;2.38;;
12912;SDS011;6524;51.368;11.984;2022-08-02T10:48:02;3.13;;;2.20;;
12912;SDS011;6524;51.368;11.984;2022-08-02T10:53:23;3.28;;;2.33;;
12912;SDS011;6524;51.368;11.984;2022-08-02T10:58:27;7.03;;;2.33;;
12912;SDS011;6524;51.368;11.984;2022-08-02T11:08:32;4.25;;;2.50;;
12912;SDS011;6524;51.368;11.984;2022-08-02T11:19:00;2.75;;;2.38;;
12912;SDS011;6524;51.368;11.984;2022-08-02T11:29:36;4.47;;;2.45;;
12912;SDS011;6524;51.368;11.984;2022-08-02T11:34:38;3.53;;;2.35;;
12912;SDS011;6524;51.368;11.984;2022-08-02T11:39:43;3.40;;;2.50;;
12912;SDS011;6524;51.368;11.984;2022-08-02T11:44:51;3.05;;;2.50;;
12912;SDS011;6524;51.368;11.984;2022-08-02T11:50:02;4.28;;;2.60;;
12912;SDS011;6524;51.368;11.984;2022-08-02T11:55:12;4.25;;;2.40;;
12912;SDS011;6524;51.368;11.984;2022-08-02T12:00:16;3.53;;;2.40;;
12912;SDS011;6524;51.368;11.984;2022-08-02T12:05:21;4.22;;;2.60;;
12912;SDS011;6524;51.368;11.984;2022-08-02T12:10:25;2.47;;;2.25;;
12912;SDS011;6524;51.368;11.984;2022-08-02T12:15:40;2.70;;;2.30;;
12912;SDS011;6524;51.368;11.984;2022-08-02T12:20:45;2.80;;;2.50;;
12912;SDS011;6524;51.368;11.984;2022-08-02T12:26:01;2.78;;;2.45;;
12912;SDS011;6524;51.368;11.984;2022-08-02T12:31:04;2.97;;;2.30;;
12912;SDS011;6524;51.368;11.984;2022-08-02T12:36:13;3.42;;;2.35;;
12912;SDS011;6524;51.368;11.984;2022-08-02T12:41:14;2.90;;;2.58;;
12912;SDS011;6524;51.368;11.984;2022-08-02T12:46:17;3.65;;;2.53;;
12912;SDS011;6524;51.368;11.984;2022-08-02T12:51:20;3.80;;;2.38;;
12912;SDS011;6524;51.368;11.984;2022-08-02T12:56:40;2.80;;;2.00;;
12912;SDS011;6524;51.368;11.984;2022-08-02T13:01:40;2.50;;;2.10;;
12912;SDS011;6524;51.368;11.984;2022-08-02T13:06:41;2.30;;;1.90;;
12912;SDS011;6524;51.368;11.984;2022-08-02T13:11:41;2.67;;;2.15;;
12912;SDS011;6524;51.368;11.984;2022-08-02T13:16:43;2.70;;;2.10;;
12912;SDS011;6524;51.368;11.984;2022-08-02T13:21:45;3.15;;;2.15;;
12912;SDS011;6524;51.368;11.984;2022-08-02T13:26:47;2.85;;;2.13;;
12912;SDS011;6524;51.368;11.984;2022-08-02T13:31:47;3.08;;;2.13;;
12912;SDS011;6524;51.368;11.984;2022-08-02T13:36:48;2.33;;;2.13;;
12912;SDS011;6524;51.368;11.984;2022-08-02T13:41:48;3.80;;;1.98;;
12912;SDS011;6524;51.368;11.984;2022-08-02T13:46:48;2.70;;;2.22;;
12912;SDS011;6524;51.368;11.984;2022-08-02T13:51:49;2.47;;;2.27;;
12912;SDS011;6524;51.368;11.984;2022-08-02T13:56:49;2.40;;;2.20;;
12912;SDS011;6524;51.368;11.984;2022-08-02T14:01:50;2.43;;;2.23;;
12912;SDS011;6524;51.368;11.984;2022-08-02T14:06:51;3.30;;;2.20;;
12912;SDS011;6524;51.368;11.984;2022-08-02T14:11:51;2.08;;;1.98;;
12912;SDS011;6524;51.368;11.984;2022-08-02T14:16:52;3.88;;;2.60;;
12912;SDS011;6524;51.368;11.984;2022-08-02T14:21:52;2.57;;;2.23;;
12912;SDS011;6524;51.368;11.984;2022-08-02T14:26:52;3.07;;;2.30;;
12912;SDS011;6524;51.368;11.984;2022-08-02T14:31:53;3.72;;;2.25;;
12912;SDS011;6524;51.368;11.984;2022-08-02T14:36:56;3.90;;;2.40;;
12912;SDS011;6524;51.368;11.984;2022-08-02T14:41:56;2.67;;;2.47;;
12912;SDS011;6524;51.368;11.984;2022-08-02T14:46:57;4.00;;;2.65;;
12912;SDS011;6524;51.368;11.984;2022-08-02T14:51:57;2.63;;;2.42;;
12912;SDS011;6524;51.368;11.984;2022-08-02T14:56:58;2.60;;;2.40;;
12912;SDS011;6524;51.368;11.984;2022-08-02T15:02:00;2.50;;;2.25;;
12912;SDS011;6524;51.368;11.984;2022-08-02T15:07:01;3.17;;;2.28;;
12912;SDS011;6524;51.368;11.984;2022-08-02T15:12:01;2.75;;;2.30;;
12912;SDS011;6524;51.368;11.984;2022-08-02T15:17:02;2.67;;;2.38;;
12912;SDS011;6524;51.368;11.984;2022-08-02T15:22:03;3.42;;;2.38;;
12912;SDS011;6524;51.368;11.984;2022-08-02T15:27:03;2.60;;;2.40;;
12912;SDS011;6524;51.368;11.984;2022-08-02T15:32:09;4.22;;;2.33;;
12912;SDS011;6524;51.368;11.984;2022-08-02T15:37:10;2.20;;;2.00;;
12912;SDS011;6524;51.368;11.984;2022-08-02T15:42:10;2.50;;;2.30;;
12912;SDS011;6524;51.368;11.984;2022-08-02T15:47:11;2.53;;;2.30;;
12912;SDS011;6524;51.368;11.984;2022-08-02T15:52:11;3.20;;;2.40;;
12912;SDS011;6524;51.368;11.984;2022-08-02T15:57:11;2.28;;;2.15;;
12912;SDS011;6524;51.368;11.984;2022-08-02T16:02:12;2.72;;;2.53;;
12912;SDS011;6524;51.368;11.984;2022-08-02T16:07:13;2.85;;;2.40;;
12912;SDS011;6524;51.368;11.984;2022-08-02T16:12:14;5.78;;;5.22;;
12912;SDS011;6524;51.368;11.984;2022-08-02T16:17:14;2.97;;;2.40;;
12912;SDS011;6524;51.368;11.984;2022-08-02T16:22:15;2.78;;;2.30;;
12912;SDS011;6524;51.368;11.984;2022-08-02T16:27:15;3.67;;;2.40;;
12912;SDS011;6524;51.368;11.984;2022-08-02T16:32:16;2.20;;;2.00;;
12912;SDS011;6524;51.368;11.984;2022-08-02T16:37:16;2.50;;;2.30;;
12912;SDS011;6524;51.368;11.984;2022-08-02T16:42:16;2.95;;;2.30;;
12912;SDS011;6524;51.368;11.984;2022-08-02T16:47:18;2.60;;;2.03;;
12912;SDS011;6524;51.368;11.984;2022-08-02T16:52:18;2.72;;;2.17;;
12912;SDS011;6524;51.368;11.984;2022-08-02T16:57:19;2.75;;;2.10;;
12912;SDS011;6524;51.368;11.984;2022-08-02T17:02:19;2.10;;;1.90;;
12912;SDS011;6524;51.368;11.984;2022-08-02T17:07:19;2.53;;;2.33;;
12912;SDS011;6524;51.368;11.984;2022-08-02T17:12:20;3.42;;;2.20;;
12912;SDS011;6524;51.368;11.984;2022-08-02T17:17:22;1.98;;;1.80;;
12912;SDS011;6524;51.368;11.984;2022-08-02T17:22:22;2.55;;;1.90;;
12912;SDS011;6524;51.368;11.984;2022-08-02T17:27:23;2.33;;;1.92;;
12912;SDS011;6524;51.368;11.984;2022-08-02T17:32:23;2.10;;;1.90;;
12912;SDS011;6524;51.368;11.984;2022-08-02T17:37:23;2.17;;;1.98;;
12912;SDS011;6524;51.368;11.984;2022-08-02T17:42:24;2.13;;;1.98;;
12912;SDS011;6524;51.368;11.984;2022-08-02T17:47:24;2.40;;;2.20;;
12912;SDS011;6524;51.368;11.984;2022-08-02T17:52:25;2.42;;;2.10;;
12912;SDS011;6524;51.368;11.984;2022-08-02T17:57:25;2.22;;;1.90;;
12912;SDS011;6524;51.368;11.984;2022-08-02T18:02:26;2.47;;;2.03;;
12912;SDS011;6524;51.368;11.984;2022-08-02T18:07:26;1.95;;;1.75;;
12912;SDS011;6524;51.368;11.984;2022-08-02T18:12:27;2.40;;;2.00;;
12912;SDS011;6524;51.368;11.984;2022-08-02T18:17:27;2.63;;;1.98;;
12912;SDS011;6524;51.368;11.984;2022-08-02T18:22:30;3.00;;;2.15;;
12912;SDS011;6524;51.368;11.984;2022-08-02T18:27:30;2.47;;;2.10;;
12912;SDS011;6524;51.368;11.984;2022-08-02T18:32:30;2.75;;;2.03;;
12912;SDS011;6524;51.368;11.984;2022-08-02T18:37:31;3.90;;;2.40;;
12912;SDS011;6524;51.368;11.984;2022-08-02T18:42:31;2.58;;;2.10;;
12912;SDS011;6524;51.368;11.984;2022-08-02T18:47:32;4.45;;;2.20;;
12912;SDS011;6524;51.368;11.984;2022-08-02T18:52:32;3.58;;;2.20;;
12912;SDS011;6524;51.368;11.984;2022-08-02T18:57:32;2.80;;;2.30;;
12912;SDS011;6524;51.368;11.984;2022-08-02T19:02:35;2.30;;;2.10;;
12912;SDS011;6524;51.368;11.984;2022-08-02T19:07:35;3.28;;;2.20;;
12912;SDS011;6524;51.368;11.984;2022-08-02T19:12:36;2.60;;;2.10;;
12912;SDS011;6524;51.368;11.984;2022-08-02T19:17:36;2.70;;;2.47;;
12912;SDS011;6524;51.368;11.984;2022-08-02T19:22:36;2.88;;;2.50;;
12912;SDS011;6524;51.368;11.984;2022-08-02T19:27:37;5.20;;;2.67;;
12912;SDS011;6524;51.368;11.984;2022-08-02T19:32:38;4.18;;;2.35;;
12912;SDS011;6524;51.368;11.984;2022-08-02T19:37:42;3.08;;;2.63;;
12912;SDS011;6524;51.368;11.984;2022-08-02T19:42:46;3.22;;;2.80;;
12912;SDS011;6524;51.368;11.984;2022-08-02T19:47:48;3.85;;;2.40;;
12912;SDS011;6524;51.368;11.984;2022-08-02T19:52:48;2.35;;;2.10;;
12912;SDS011;6524;51.368;11.984;2022-08-02T19:57:49;2.60;;;2.40;;
12912;SDS011;6524;51.368;11.984;2022-08-02T20:02:50;3.60;;;2.58;;
12912;SDS011;6524;51.368;11.984;2022-08-02T20:07:50;2.58;;;2.05;;
12912;SDS011;6524;51.368;11.984;2022-08-02T20:12:50;2.40;;;2.20;;
12912;SDS011;6524;51.368;11.984;2022-08-02T20:17:53;3.10;;;2.15;;
12912;SDS011;6524;51.368;11.984;2022-08-02T20:22:56;2.50;;;2.30;;
12912;SDS011;6524;51.368;11.984;2022-08-02T20:28:16;3.45;;;2.40;;
12912;SDS011;6524;51.368;11.984;2022-08-02T20:33:17;3.88;;;2.50;;
12912;SDS011;6524;51.368;11.984;2022-08-02T20:38:17;2.55;;;2.35;;
12912;SDS011;6524;51.368;11.984;2022-08-02T20:43:18;3.70;;;2.60;;
12912;SDS011;6524;51.368;11.984;2022-08-02T20:48:18;3.25;;;2.47;;
12912;SDS011;6524;51.368;11.984;2022-08-02T20:53:19;3.28;;;2.45;;
12912;SDS011;6524;51.368;11.984;2022-08-02T20:58:21;3.08;;;2.70;;
12912;SDS011;6524;51.368;11.984;2022-08-02T21:03:22;3.50;;;2.45;;
12912;SDS011;6524;51.368;11.984;2022-08-02T21:08:22;3.40;;;2.40;;
12912;SDS011;6524;51.368;11.984;2022-08-02T21:13:23;2.58;;;2.38;;
12912;SDS011;6524;51.368;11.984;2022-08-02T21:18:23;2.97;;;2.50;;
12912;SDS011;6524;51.368;11.984;2022-08-02T21:23:23;6.32;;;2.80;;
12912;SDS011;6524;51.368;11.984;2022-08-02T21:28:24;2.75;;;2.50;;
12912;SDS011;6524;51.368;11.984;2022-08-02T21:33:25;3.22;;;2.88;;
12912;SDS011;6524;51.368;11.984;2022-08-02T21:38:26;3.03;;;2.80;;
12912;SDS011;6524;51.368;11.984;2022-08-02T21:43:27;4.72;;;2.90;;
12912;SDS011;6524;51.368;11.984;2022-08-02T21:48:28;5.03;;;3.00;;
12912;SDS011;6524;51.368;11.984;2022-08-02T21:53:28;5.45;;;3.25;;
12912;SDS011;6524;51.368;11.984;2022-08-02T21:58:28;4.50;;;3.50;;
12912;SDS011;6524;51.368;11.984;2022-08-02T22:03:28;4.83;;;3.40;;
12912;SDS011;6524;51.368;11.984;2022-08-02T22:08:29;6.13;;;3.45;;
12912;SDS011;6524;51.368;11.984;2022-08-02T22:13:31;3.75;;;3.15;;
12912;SDS011;6524;51.368;11.984;2022-08-02T22:18:32;5.75;;;3.45;;
12912;SDS011;6524;51.368;11.984;2022-08-02T22:23:32;4.30;;;3.20;;
12912;SDS011;6524;51.368;11.984;2022-08-02T22:28:32;6.40;;;2.97;;
12912;SDS011;6524;51.368;11.984;2022-08-02T22:33:33;4.75;;;3.03;;
12912;SDS011;6524;51.368;11.984;2022-08-02T22:38:52;6.13;;;2.67;;
12912;SDS011;6524;51.368;11.984;2022-08-02T22:43:52;3.72;;;3.30;;
12912;SDS011;6524;51.368;11.984;2022-08-02T22:48:53;4.28;;;3.10;;
12912;SDS011;6524;51.368;11.984;2022-08-02T22:53:54;3.58;;;3.10;;
12912;SDS011;6524;51.368;11.984;2022-08-02T22:58:54;5.25;;;3.20;;
12912;SDS011;6524;51.368;11.984;2022-08-02T23:03:55;4.22;;;2.80;;
12912;SDS011;6524;51.368;11.984;2022-08-02T23:08:55;5.20;;;3.00;;
12912;SDS011;6524;51.368;11.984;2022-08-02T23:13:55;5.65;;;2.90;;
12912;SDS011;6524;51.368;11.984;2022-08-02T23:18:55;6.03;;;3.08;;
12912;SDS011;6524;51.368;11.984;2022-08-02T23:24:14;4.30;;;3.00;;
12912;SDS011;6524;51.368;11.984;2022-08-02T23:29:15;4.18;;;2.97;;
12912;SDS011;6524;51.368;11.984;2022-08-02T23:34:15;4.93;;;3.20;;
12912;SDS011;6524;51.368;11.984;2022-08-02T23:39:15;4.00;;;3.03;;
12912;SDS011;6524;51.368;11.984;2022-08-02T23:44:16;4.25;;;3.10;;
12912;SDS011;6524;51.368;11.984;2022-08-02T23:49:16;4.53;;;3.42;;
12912;SDS011;6524;51.368;11.984;2022-08-02T23:54:16;5.40;;;3.28;;
12912;SDS011;6524;51.368;11.984;2022-08-02T23:59:17;5.10;;;3.17;;
